MET'MAP v2.0
soon released !

Expected late october,
this new version will be
more efficient, smarter,
and hosted on a brand new
server x3 powerfull...
...and still free !


Not compatible ?
Try the mobile version !

LOG IN : | Subscribe | Disclaimer | Who is Orbifly ? |
ICAO code :
Legend : VFR Marginal VFR IFR Intensive IFR Very Intensive IFR
Visi :
Ceiling :
>= 8 km
>= 3000ft
5 to 8 km
1000 to 3000 ft
1500m to 5 km
500 to 1000 ft
800 to 1500m
200 to 500 ft
< 800m
< 200 ft

METAR - EGCN Robin Hood Doncaster Sheffield - 25 Feb 2020 17:29 UTC - Data Source NOAA   


- Airport Elevation : 55 ft
- IATA code : DSA
- No reported NOTAMs.


EGCN - Robin Hood Doncaster Sheffield

Latest METAR recorded : 2015/08/11 07:50 EGCN 110750Z 28004KT CAVOK 16/11 Q1020
TAF TAF EGCN
Valid from the 25 at 12:00 until the 26 at 12:00 UTC


251102Z 2512/2612 25010KT 9999 SCT025
TEMPO 2512/2522 7000 SHRA BKN014
PROB30
TEMPO 2512/2522 26015G25KT 2000 SHRASN +SHGS BKN008 BKN015CB
PROB30
TEMPO 2522/2609 1200 SHSN BKN004
PROB30
TEMPO 2607/2612 28015G25KT

Source NOAA


MET'MAP, your aeronautical weather chart ! - Copyright ORBIFLY December 2007

Programming & Development : Alexandra Zaïnal
Co-Developer : Marc-Olivier Méhu
Technical & hardware support : Manuel Goepfert
Concept & Financing : Baudouin d'Aumeries